Terminal Aerodrome Forecast
Issued by NWS Atlanta, GA

Home | Current Version | Previous Version | Text Only | Print | Product List | Glossary On
Versions: 1 2 3 4 5 6 7 8 9 10 11 12 13 14 15 16 17 18 19 20 21 22 23 24 25 26 27 28 29 30 31 32 33 34 35 36 37 38 39 40 41 42 43 44 45
000
FTUS42 KFFC 291735
TAFATL
TAF
KATL 291735Z 2918/3024 10009KT P6SM -RA FEW022 SCT035 BKN050
     FM300100 12005KT P6SM VCSH SCT025 OVC050
     FM300900 09007KT P6SM -SHRA SCT005 OVC035
     FM301400 07009KT 6SM SHRA OVC012
     FM301800 08008KT P6SM BKN030=

USA.gov is the U.S. government's official web portal to all federal, state and local government web resources and services.